Terminal Aerodrome Forecast
Issued by NWS Pendleton, OR

Home | Current Version | Previous Version | Text Only | Print | Product List | Glossary On
Versions: 1 2 3 4 5 6 7 8 9 10 11 12 13 14 15 16 17 18 19 20 21 22 23 24 25 26 27 28
700
FTUS46 KPDT 190235 AAD
TAFPDT
TAF AMD
KPDT 190235Z 1903/1924 02010G20KT 1SM -SHSN BR SCT012 OVC026
      TEMPO 1903/1906 3SM -SHSN BR SCT012 SCT029 OVC035
     FM190600 36015G23KT 1SM -SHSN BR BKN009 OVC015
     FM190900 31010KT P6SM -SHSN BKN035 OVC050
     FM191800 30008KT P6SM SCT050 SCT070=

USA.gov is the U.S. government's official web portal to all federal, state and local government web resources and services.